sensor_id;sensor_type;location;lat;lon;timestamp;P1;durP1;ratioP1;P2;durP2;ratioP2
3155;SDS011;1588;50.892;7.082;2024-01-11T00:02:00;31.37;;;10.37;;
3155;SDS011;1588;50.892;7.082;2024-01-11T00:07:02;24.23;;;7.27;;
3155;SDS011;1588;50.892;7.082;2024-01-11T00:12:05;22.23;;;8.53;;
3155;SDS011;1588;50.892;7.082;2024-01-11T00:17:09;26.53;;;9.77;;
3155;SDS011;1588;50.892;7.082;2024-01-11T00:22:15;21.60;;;8.40;;
3155;SDS011;1588;50.892;7.082;2024-01-11T00:27:20;24.80;;;9.57;;
3155;SDS011;1588;50.892;7.082;2024-01-11T00:32:24;22.67;;;9.77;;
3155;SDS011;1588;50.892;7.082;2024-01-11T00:37:30;31.30;;;10.37;;
3155;SDS011;1588;50.892;7.082;2024-01-11T00:42:33;23.33;;;7.83;;
3155;SDS011;1588;50.892;7.082;2024-01-11T00:53:17;22.90;;;8.80;;
3155;SDS011;1588;50.892;7.082;2024-01-11T00:58:19;24.57;;;9.40;;
3155;SDS011;1588;50.892;7.082;2024-01-11T01:03:23;30.97;;;12.63;;
3155;SDS011;1588;50.892;7.082;2024-01-11T01:08:25;43.43;;;9.73;;
3155;SDS011;1588;50.892;7.082;2024-01-11T01:13:27;24.33;;;10.23;;
3155;SDS011;1588;50.892;7.082;2024-01-11T01:18:31;28.83;;;9.27;;
3155;SDS011;1588;50.892;7.082;2024-01-11T01:23:33;21.70;;;8.87;;
3155;SDS011;1588;50.892;7.082;2024-01-11T01:28:37;19.87;;;8.70;;
3155;SDS011;1588;50.892;7.082;2024-01-11T01:33:57;21.37;;;9.93;;
3155;SDS011;1588;50.892;7.082;2024-01-11T01:38:59;22.73;;;9.73;;
3155;SDS011;1588;50.892;7.082;2024-01-11T01:44:02;27.70;;;11.80;;
3155;SDS011;1588;50.892;7.082;2024-01-11T01:49:06;43.30;;;9.77;;
3155;SDS011;1588;50.892;7.082;2024-01-11T01:54:08;23.07;;;8.33;;
3155;SDS011;1588;50.892;7.082;2024-01-11T01:59:11;23.93;;;8.27;;
3155;SDS011;1588;50.892;7.082;2024-01-11T02:04:16;25.60;;;8.97;;
3155;SDS011;1588;50.892;7.082;2024-01-11T02:09:19;35.47;;;8.90;;
3155;SDS011;1588;50.892;7.082;2024-01-11T02:14:21;27.10;;;10.50;;
3155;SDS011;1588;50.892;7.082;2024-01-11T02:19:25;25.90;;;8.90;;
3155;SDS011;1588;50.892;7.082;2024-01-11T02:30:34;37.70;;;8.37;;
3155;SDS011;1588;50.892;7.082;2024-01-11T02:35:41;32.60;;;9.67;;
3155;SDS011;1588;50.892;7.082;2024-01-11T02:40:45;24.47;;;8.53;;
3155;SDS011;1588;50.892;7.082;2024-01-11T02:51:47;25.87;;;9.73;;
3155;SDS011;1588;50.892;7.082;2024-01-11T02:56:49;18.80;;;7.13;;
3155;SDS011;1588;50.892;7.082;2024-01-11T03:01:51;21.70;;;9.70;;
3155;SDS011;1588;50.892;7.082;2024-01-11T03:06:56;32.93;;;11.33;;
3155;SDS011;1588;50.892;7.082;2024-01-11T03:11:59;29.07;;;9.80;;
3155;SDS011;1588;50.892;7.082;2024-01-11T03:17:02;26.13;;;8.87;;
3155;SDS011;1588;50.892;7.082;2024-01-11T03:22:06;23.67;;;9.70;;
3155;SDS011;1588;50.892;7.082;2024-01-11T03:27:09;24.43;;;9.40;;
3155;SDS011;1588;50.892;7.082;2024-01-11T03:32:11;30.87;;;8.40;;
3155;SDS011;1588;50.892;7.082;2024-01-11T03:37:28;21.47;;;8.60;;
3155;SDS011;1588;50.892;7.082;2024-01-11T03:42:30;27.10;;;8.90;;
3155;SDS011;1588;50.892;7.082;2024-01-11T03:47:32;21.33;;;8.77;;
3155;SDS011;1588;50.892;7.082;2024-01-11T03:52:37;25.57;;;9.40;;
3155;SDS011;1588;50.892;7.082;2024-01-11T03:57:46;37.80;;;9.60;;
3155;SDS011;1588;50.892;7.082;2024-01-11T04:02:51;20.20;;;8.43;;
3155;SDS011;1588;50.892;7.082;2024-01-11T04:07:55;16.40;;;7.17;;
3155;SDS011;1588;50.892;7.082;2024-01-11T04:18:57;27.90;;;9.73;;
3155;SDS011;1588;50.892;7.082;2024-01-11T04:24:02;22.43;;;9.43;;
3155;SDS011;1588;50.892;7.082;2024-01-11T04:29:26;32.00;;;9.47;;
3155;SDS011;1588;50.892;7.082;2024-01-11T04:34:29;20.10;;;8.13;;
3155;SDS011;1588;50.892;7.082;2024-01-11T04:39:40;23.07;;;8.57;;
3155;SDS011;1588;50.892;7.082;2024-01-11T04:44:42;18.33;;;8.97;;
3155;SDS011;1588;50.892;7.082;2024-01-11T04:49:56;21.77;;;8.27;;
3155;SDS011;1588;50.892;7.082;2024-01-11T04:55:13;26.97;;;9.57;;
3155;SDS011;1588;50.892;7.082;2024-01-11T05:00:32;31.83;;;7.90;;
3155;SDS011;1588;50.892;7.082;2024-01-11T05:05:55;35.07;;;9.47;;
3155;SDS011;1588;50.892;7.082;2024-01-11T05:10:58;20.70;;;6.97;;
3155;SDS011;1588;50.892;7.082;2024-01-11T05:16:01;18.87;;;7.97;;
3155;SDS011;1588;50.892;7.082;2024-01-11T05:21:04;15.60;;;7.97;;
3155;SDS011;1588;50.892;7.082;2024-01-11T05:26:08;26.67;;;8.43;;
3155;SDS011;1588;50.892;7.082;2024-01-11T05:31:10;31.23;;;8.37;;
3155;SDS011;1588;50.892;7.082;2024-01-11T05:36:15;21.50;;;7.70;;
3155;SDS011;1588;50.892;7.082;2024-01-11T05:41:19;22.43;;;7.07;;
3155;SDS011;1588;50.892;7.082;2024-01-11T05:46:36;26.00;;;7.73;;
3155;SDS011;1588;50.892;7.082;2024-01-11T05:51:53;22.57;;;7.10;;
3155;SDS011;1588;50.892;7.082;2024-01-11T05:57:06;19.57;;;9.50;;
3155;SDS011;1588;50.892;7.082;2024-01-11T06:02:09;22.77;;;7.40;;
3155;SDS011;1588;50.892;7.082;2024-01-11T06:07:17;34.90;;;8.97;;
3155;SDS011;1588;50.892;7.082;2024-01-11T06:12:22;23.57;;;8.33;;
3155;SDS011;1588;50.892;7.082;2024-01-11T06:17:44;31.70;;;7.03;;
3155;SDS011;1588;50.892;7.082;2024-01-11T06:23:09;23.97;;;7.63;;
3155;SDS011;1588;50.892;7.082;2024-01-11T06:28:13;36.63;;;10.43;;
3155;SDS011;1588;50.892;7.082;2024-01-11T06:33:15;37.47;;;7.13;;
3155;SDS011;1588;50.892;7.082;2024-01-11T06:38:18;20.83;;;6.30;;
3155;SDS011;1588;50.892;7.082;2024-01-11T06:43:22;31.07;;;9.47;;
3155;SDS011;1588;50.892;7.082;2024-01-11T06:48:25;21.03;;;8.20;;
3155;SDS011;1588;50.892;7.082;2024-01-11T06:53:27;29.40;;;9.30;;
3155;SDS011;1588;50.892;7.082;2024-01-11T06:58:31;8.77;;;5.53;;
3155;SDS011;1588;50.892;7.082;2024-01-11T07:03:34;20.43;;;9.63;;
3155;SDS011;1588;50.892;7.082;2024-01-11T07:08:36;34.00;;;9.30;;
3155;SDS011;1588;50.892;7.082;2024-01-11T07:13:40;17.10;;;6.73;;
3155;SDS011;1588;50.892;7.082;2024-01-11T07:18:58;27.23;;;9.67;;
3155;SDS011;1588;50.892;7.082;2024-01-11T07:24:01;11.60;;;5.73;;
3155;SDS011;1588;50.892;7.082;2024-01-11T07:29:05;18.13;;;6.67;;
3155;SDS011;1588;50.892;7.082;2024-01-11T07:34:08;37.73;;;7.50;;
3155;SDS011;1588;50.892;7.082;2024-01-11T07:39:10;21.50;;;6.70;;
3155;SDS011;1588;50.892;7.082;2024-01-11T07:44:16;25.70;;;8.73;;
3155;SDS011;1588;50.892;7.082;2024-01-11T07:49:19;21.03;;;9.10;;
3155;SDS011;1588;50.892;7.082;2024-01-11T07:54:31;10.57;;;6.57;;
3155;SDS011;1588;50.892;7.082;2024-01-11T07:59:35;27.00;;;8.70;;
3155;SDS011;1588;50.892;7.082;2024-01-11T08:04:49;28.23;;;8.33;;
3155;SDS011;1588;50.892;7.082;2024-01-11T08:09:52;20.37;;;9.70;;
3155;SDS011;1588;50.892;7.082;2024-01-11T08:14:56;31.57;;;7.20;;
3155;SDS011;1588;50.892;7.082;2024-01-11T08:19:58;34.23;;;10.70;;
3155;SDS011;1588;50.892;7.082;2024-01-11T08:25:01;25.73;;;8.33;;
3155;SDS011;1588;50.892;7.082;2024-01-11T08:30:12;20.77;;;9.50;;
3155;SDS011;1588;50.892;7.082;2024-01-11T08:35:16;22.87;;;8.10;;
3155;SDS011;1588;50.892;7.082;2024-01-11T08:40:40;31.43;;;10.37;;
3155;SDS011;1588;50.892;7.082;2024-01-11T08:45:46;32.63;;;10.10;;
3155;SDS011;1588;50.892;7.082;2024-01-11T08:50:49;19.97;;;8.87;;
3155;SDS011;1588;50.892;7.082;2024-01-11T08:55:52;20.67;;;8.40;;
3155;SDS011;1588;50.892;7.082;2024-01-11T09:01:00;27.10;;;10.83;;
3155;SDS011;1588;50.892;7.082;2024-01-11T09:06:09;37.80;;;15.20;;
3155;SDS011;1588;50.892;7.082;2024-01-11T09:11:21;53.07;;;17.30;;
3155;SDS011;1588;50.892;7.082;2024-01-11T09:16:25;47.93;;;16.67;;
3155;SDS011;1588;50.892;7.082;2024-01-11T09:21:47;56.97;;;19.83;;
3155;SDS011;1588;50.892;7.082;2024-01-11T09:26:49;41.50;;;17.20;;
3155;SDS011;1588;50.892;7.082;2024-01-11T09:32:07;50.30;;;17.40;;
3155;SDS011;1588;50.892;7.082;2024-01-11T09:37:10;48.67;;;17.27;;
3155;SDS011;1588;50.892;7.082;2024-01-11T09:42:17;44.33;;;18.40;;
3155;SDS011;1588;50.892;7.082;2024-01-11T09:47:22;52.07;;;21.03;;
3155;SDS011;1588;50.892;7.082;2024-01-11T09:52:26;48.37;;;19.00;;
3155;SDS011;1588;50.892;7.082;2024-01-11T09:57:32;55.67;;;20.30;;
3155;SDS011;1588;50.892;7.082;2024-01-11T10:02:39;52.53;;;20.00;;
3155;SDS011;1588;50.892;7.082;2024-01-11T10:08:02;54.20;;;19.23;;
3155;SDS011;1588;50.892;7.082;2024-01-11T10:13:14;54.03;;;18.77;;
3155;SDS011;1588;50.892;7.082;2024-01-11T10:18:34;47.63;;;19.50;;
3155;SDS011;1588;50.892;7.082;2024-01-11T10:23:37;53.07;;;20.07;;
3155;SDS011;1588;50.892;7.082;2024-01-11T10:28:43;52.50;;;19.23;;
3155;SDS011;1588;50.892;7.082;2024-01-11T10:33:51;51.53;;;17.20;;
3155;SDS011;1588;50.892;7.082;2024-01-11T10:39:15;49.87;;;18.90;;
3155;SDS011;1588;50.892;7.082;2024-01-11T10:44:19;53.80;;;19.13;;
3155;SDS011;1588;50.892;7.082;2024-01-11T10:49:45;49.43;;;20.10;;
3155;SDS011;1588;50.892;7.082;2024-01-11T10:54:55;53.73;;;18.17;;
3155;SDS011;1588;50.892;7.082;2024-01-11T11:00:30;62.13;;;19.07;;
3155;SDS011;1588;50.892;7.082;2024-01-11T11:05:36;49.43;;;18.47;;
3155;SDS011;1588;50.892;7.082;2024-01-11T11:10:45;58.77;;;19.63;;
3155;SDS011;1588;50.892;7.082;2024-01-11T11:16:15;60.27;;;22.33;;
3155;SDS011;1588;50.892;7.082;2024-01-11T11:21:42;50.90;;;20.80;;
3155;SDS011;1588;50.892;7.082;2024-01-11T11:26:46;57.83;;;20.40;;
3155;SDS011;1588;50.892;7.082;2024-01-11T11:31:51;51.67;;;20.00;;
3155;SDS011;1588;50.892;7.082;2024-01-11T11:37:15;57.37;;;18.73;;
3155;SDS011;1588;50.892;7.082;2024-01-11T11:42:43;64.67;;;21.60;;
3155;SDS011;1588;50.892;7.082;2024-01-11T11:54:37;55.60;;;20.40;;
3155;SDS011;1588;50.892;7.082;2024-01-11T11:59:40;57.23;;;20.20;;
3155;SDS011;1588;50.892;7.082;2024-01-11T12:04:46;57.03;;;21.93;;
3155;SDS011;1588;50.892;7.082;2024-01-11T12:09:50;76.77;;;22.80;;
3155;SDS011;1588;50.892;7.082;2024-01-11T12:14:53;61.93;;;20.17;;
3155;SDS011;1588;50.892;7.082;2024-01-11T12:19:55;67.43;;;22.83;;
3155;SDS011;1588;50.892;7.082;2024-01-11T12:24:59;50.30;;;20.40;;
3155;SDS011;1588;50.892;7.082;2024-01-11T12:30:01;63.43;;;22.97;;
3155;SDS011;1588;50.892;7.082;2024-01-11T12:35:04;58.53;;;23.33;;
3155;SDS011;1588;50.892;7.082;2024-01-11T12:40:08;61.23;;;22.27;;
3155;SDS011;1588;50.892;7.082;2024-01-11T12:45:14;65.13;;;24.53;;
3155;SDS011;1588;50.892;7.082;2024-01-11T12:50:17;58.33;;;21.70;;
3155;SDS011;1588;50.892;7.082;2024-01-11T12:55:22;61.93;;;21.37;;
3155;SDS011;1588;50.892;7.082;2024-01-11T13:00:24;64.93;;;21.63;;
3155;SDS011;1588;50.892;7.082;2024-01-11T13:05:27;60.43;;;23.40;;
3155;SDS011;1588;50.892;7.082;2024-01-11T13:10:31;60.30;;;25.00;;
3155;SDS011;1588;50.892;7.082;2024-01-11T13:15:40;70.60;;;25.13;;
3155;SDS011;1588;50.892;7.082;2024-01-11T13:20:42;77.93;;;25.07;;
3155;SDS011;1588;50.892;7.082;2024-01-11T13:25:47;58.93;;;23.40;;
3155;SDS011;1588;50.892;7.082;2024-01-11T13:30:50;55.07;;;21.47;;
3155;SDS011;1588;50.892;7.082;2024-01-11T13:35:53;55.03;;;21.50;;
3155;SDS011;1588;50.892;7.082;2024-01-11T13:40:57;62.93;;;21.40;;
3155;SDS011;1588;50.892;7.082;2024-01-11T13:45:59;61.57;;;21.80;;
3155;SDS011;1588;50.892;7.082;2024-01-11T13:51:11;65.40;;;23.17;;
3155;SDS011;1588;50.892;7.082;2024-01-11T13:56:18;68.40;;;23.30;;
3155;SDS011;1588;50.892;7.082;2024-01-11T14:01:20;58.03;;;21.00;;
3155;SDS011;1588;50.892;7.082;2024-01-11T14:06:22;66.13;;;23.20;;
3155;SDS011;1588;50.892;7.082;2024-01-11T14:11:26;58.87;;;21.50;;
3155;SDS011;1588;50.892;7.082;2024-01-11T14:16:28;54.40;;;21.90;;
3155;SDS011;1588;50.892;7.082;2024-01-11T14:21:31;58.23;;;21.57;;
3155;SDS011;1588;50.892;7.082;2024-01-11T14:26:35;60.47;;;21.70;;
3155;SDS011;1588;50.892;7.082;2024-01-11T14:31:38;65.00;;;24.00;;
3155;SDS011;1588;50.892;7.082;2024-01-11T14:36:41;63.80;;;21.87;;
3155;SDS011;1588;50.892;7.082;2024-01-11T14:41:50;61.03;;;22.57;;
3155;SDS011;1588;50.892;7.082;2024-01-11T14:46:52;68.37;;;23.33;;
3155;SDS011;1588;50.892;7.082;2024-01-11T14:51:54;81.00;;;25.10;;
3155;SDS011;1588;50.892;7.082;2024-01-11T14:56:58;52.53;;;21.97;;
3155;SDS011;1588;50.892;7.082;2024-01-11T15:02:00;57.97;;;20.97;;
3155;SDS011;1588;50.892;7.082;2024-01-11T15:07:03;60.97;;;23.23;;
3155;SDS011;1588;50.892;7.082;2024-01-11T15:12:07;72.20;;;21.93;;
3155;SDS011;1588;50.892;7.082;2024-01-11T15:17:10;56.13;;;21.43;;
3155;SDS011;1588;50.892;7.082;2024-01-11T15:22:12;65.00;;;20.97;;
3155;SDS011;1588;50.892;7.082;2024-01-11T15:27:16;59.20;;;22.70;;
3155;SDS011;1588;50.892;7.082;2024-01-11T15:32:18;56.73;;;20.40;;
3155;SDS011;1588;50.892;7.082;2024-01-11T15:37:20;60.87;;;22.20;;
3155;SDS011;1588;50.892;7.082;2024-01-11T15:42:25;65.33;;;21.47;;
3155;SDS011;1588;50.892;7.082;2024-01-11T15:47:27;84.97;;;22.57;;
3155;SDS011;1588;50.892;7.082;2024-01-11T15:52:30;59.90;;;20.97;;
3155;SDS011;1588;50.892;7.082;2024-01-11T15:57:36;66.37;;;21.37;;
3155;SDS011;1588;50.892;7.082;2024-01-11T16:02:39;58.43;;;20.17;;
3155;SDS011;1588;50.892;7.082;2024-01-11T16:07:45;67.07;;;22.70;;
3155;SDS011;1588;50.892;7.082;2024-01-11T16:12:49;60.70;;;20.03;;
3155;SDS011;1588;50.892;7.082;2024-01-11T16:17:51;63.43;;;19.50;;
3155;SDS011;1588;50.892;7.082;2024-01-11T16:22:54;65.37;;;17.73;;
3155;SDS011;1588;50.892;7.082;2024-01-11T16:27:57;55.60;;;17.67;;
3155;SDS011;1588;50.892;7.082;2024-01-11T16:32:59;43.33;;;17.10;;
3155;SDS011;1588;50.892;7.082;2024-01-11T16:38:02;47.50;;;18.00;;
3155;SDS011;1588;50.892;7.082;2024-01-11T16:43:07;46.07;;;17.10;;
3155;SDS011;1588;50.892;7.082;2024-01-11T16:48:10;41.23;;;15.40;;
3155;SDS011;1588;50.892;7.082;2024-01-11T16:53:17;38.30;;;15.17;;
3155;SDS011;1588;50.892;7.082;2024-01-11T16:58:21;44.73;;;14.47;;
3155;SDS011;1588;50.892;7.082;2024-01-11T17:03:24;55.90;;;16.63;;
3155;SDS011;1588;50.892;7.082;2024-01-11T17:08:27;37.63;;;13.47;;
3155;SDS011;1588;50.892;7.082;2024-01-11T17:13:31;43.80;;;14.93;;
3155;SDS011;1588;50.892;7.082;2024-01-11T17:18:33;42.27;;;14.80;;
3155;SDS011;1588;50.892;7.082;2024-01-11T17:23:35;43.43;;;15.77;;
3155;SDS011;1588;50.892;7.082;2024-01-11T17:28:39;37.33;;;13.20;;
3155;SDS011;1588;50.892;7.082;2024-01-11T17:33:41;38.60;;;13.13;;
3155;SDS011;1588;50.892;7.082;2024-01-11T17:38:44;46.73;;;14.37;;
3155;SDS011;1588;50.892;7.082;2024-01-11T17:43:47;34.47;;;13.43;;
3155;SDS011;1588;50.892;7.082;2024-01-11T17:48:50;47.13;;;15.93;;
3155;SDS011;1588;50.892;7.082;2024-01-11T17:53:55;49.83;;;14.77;;
3155;SDS011;1588;50.892;7.082;2024-01-11T17:58:58;45.97;;;14.40;;
3155;SDS011;1588;50.892;7.082;2024-01-11T18:04:01;46.73;;;15.37;;
3155;SDS011;1588;50.892;7.082;2024-01-11T18:09:03;44.80;;;15.43;;
3155;SDS011;1588;50.892;7.082;2024-01-11T18:14:07;44.40;;;17.10;;
3155;SDS011;1588;50.892;7.082;2024-01-11T18:19:10;38.20;;;16.37;;
3155;SDS011;1588;50.892;7.082;2024-01-11T18:24:13;40.37;;;15.30;;
3155;SDS011;1588;50.892;7.082;2024-01-11T18:29:19;37.90;;;14.30;;
3155;SDS011;1588;50.892;7.082;2024-01-11T18:34:23;54.93;;;15.77;;
3155;SDS011;1588;50.892;7.082;2024-01-11T18:39:25;46.30;;;15.07;;
3155;SDS011;1588;50.892;7.082;2024-01-11T18:44:29;36.37;;;15.03;;
3155;SDS011;1588;50.892;7.082;2024-01-11T18:49:32;38.00;;;14.87;;
3155;SDS011;1588;50.892;7.082;2024-01-11T18:54:34;45.60;;;16.20;;
3155;SDS011;1588;50.892;7.082;2024-01-11T18:59:38;36.27;;;14.10;;
3155;SDS011;1588;50.892;7.082;2024-01-11T19:04:40;45.90;;;15.77;;
3155;SDS011;1588;50.892;7.082;2024-01-11T19:09:43;47.70;;;18.57;;
3155;SDS011;1588;50.892;7.082;2024-01-11T19:14:47;38.80;;;14.53;;
3155;SDS011;1588;50.892;7.082;2024-01-11T19:19:49;42.80;;;15.77;;
3155;SDS011;1588;50.892;7.082;2024-01-11T19:24:51;42.73;;;16.03;;
3155;SDS011;1588;50.892;7.082;2024-01-11T19:29:55;47.77;;;16.00;;
3155;SDS011;1588;50.892;7.082;2024-01-11T19:35:11;63.20;;;17.40;;
3155;SDS011;1588;50.892;7.082;2024-01-11T19:40:14;47.70;;;16.23;;
3155;SDS011;1588;50.892;7.082;2024-01-11T19:45:18;35.93;;;15.40;;
3155;SDS011;1588;50.892;7.082;2024-01-11T19:50:20;38.27;;;14.07;;
3155;SDS011;1588;50.892;7.082;2024-01-11T19:55:23;41.10;;;13.87;;
3155;SDS011;1588;50.892;7.082;2024-01-11T20:00:27;55.33;;;18.17;;
3155;SDS011;1588;50.892;7.082;2024-01-11T20:05:29;41.60;;;15.50;;
3155;SDS011;1588;50.892;7.082;2024-01-11T20:10:31;39.90;;;15.93;;
3155;SDS011;1588;50.892;7.082;2024-01-11T20:15:35;39.63;;;14.33;;
3155;SDS011;1588;50.892;7.082;2024-01-11T20:20:37;53.60;;;15.77;;
3155;SDS011;1588;50.892;7.082;2024-01-11T20:25:40;41.20;;;16.70;;
3155;SDS011;1588;50.892;7.082;2024-01-11T20:30:44;45.83;;;15.30;;
3155;SDS011;1588;50.892;7.082;2024-01-11T20:35:47;38.67;;;14.47;;
3155;SDS011;1588;50.892;7.082;2024-01-11T20:40:49;38.03;;;13.70;;
3155;SDS011;1588;50.892;7.082;2024-01-11T20:45:53;44.50;;;17.33;;
3155;SDS011;1588;50.892;7.082;2024-01-11T20:50:55;47.23;;;16.63;;
3155;SDS011;1588;50.892;7.082;2024-01-11T20:55:58;48.60;;;17.07;;
3155;SDS011;1588;50.892;7.082;2024-01-11T21:01:01;48.20;;;16.53;;
3155;SDS011;1588;50.892;7.082;2024-01-11T21:06:09;41.87;;;16.83;;
3155;SDS011;1588;50.892;7.082;2024-01-11T21:11:12;45.63;;;17.00;;
3155;SDS011;1588;50.892;7.082;2024-01-11T21:16:18;41.03;;;15.80;;
3155;SDS011;1588;50.892;7.082;2024-01-11T21:21:21;43.03;;;14.63;;
3155;SDS011;1588;50.892;7.082;2024-01-11T21:26:24;38.33;;;13.30;;
3155;SDS011;1588;50.892;7.082;2024-01-11T21:31:29;43.00;;;12.47;;
3155;SDS011;1588;50.892;7.082;2024-01-11T21:36:32;34.13;;;14.97;;
3155;SDS011;1588;50.892;7.082;2024-01-11T21:41:35;42.07;;;14.73;;
3155;SDS011;1588;50.892;7.082;2024-01-11T21:46:39;41.00;;;14.37;;
3155;SDS011;1588;50.892;7.082;2024-01-11T21:51:41;41.40;;;14.50;;
3155;SDS011;1588;50.892;7.082;2024-01-11T21:56:44;41.00;;;13.40;;
3155;SDS011;1588;50.892;7.082;2024-01-11T22:01:48;38.20;;;13.13;;
3155;SDS011;1588;50.892;7.082;2024-01-11T22:06:58;36.17;;;12.80;;
3155;SDS011;1588;50.892;7.082;2024-01-11T22:12:00;29.70;;;11.83;;
3155;SDS011;1588;50.892;7.082;2024-01-11T22:17:04;33.47;;;12.10;;
3155;SDS011;1588;50.892;7.082;2024-01-11T22:22:09;37.97;;;13.30;;
3155;SDS011;1588;50.892;7.082;2024-01-11T22:27:15;32.47;;;12.23;;
3155;SDS011;1588;50.892;7.082;2024-01-11T22:38:44;38.33;;;13.93;;
3155;SDS011;1588;50.892;7.082;2024-01-11T22:44:53;33.37;;;11.40;;
3155;SDS011;1588;50.892;7.082;2024-01-11T22:49:58;31.57;;;13.03;;
3155;SDS011;1588;50.892;7.082;2024-01-11T22:55:14;38.90;;;13.57;;
3155;SDS011;1588;50.892;7.082;2024-01-11T23:00:35;33.53;;;11.90;;
3155;SDS011;1588;50.892;7.082;2024-01-11T23:05:38;41.70;;;14.83;;
3155;SDS011;1588;50.892;7.082;2024-01-11T23:10:52;40.20;;;13.70;;
3155;SDS011;1588;50.892;7.082;2024-01-11T23:16:18;39.83;;;15.70;;
3155;SDS011;1588;50.892;7.082;2024-01-11T23:21:20;41.63;;;14.03;;
3155;SDS011;1588;50.892;7.082;2024-01-11T23:26:31;48.43;;;13.97;;
3155;SDS011;1588;50.892;7.082;2024-01-11T23:31:38;43.73;;;13.07;;
3155;SDS011;1588;50.892;7.082;2024-01-11T23:37:13;41.10;;;15.00;;
3155;SDS011;1588;50.892;7.082;2024-01-11T23:42:58;36.67;;;13.70;;
3155;SDS011;1588;50.892;7.082;2024-01-11T23:48:12;45.77;;;13.73;;
3155;SDS011;1588;50.892;7.082;2024-01-11T23:53:43;41.50;;;13.00;;
3155;SDS011;1588;50.892;7.082;2024-01-11T23:59:00;30.00;;;13.57;;
